Time;durP1;ratioP1;P1;durP2;ratioP2;P2;SDS_P1;SDS_P2;PMS_P1;PMS_P2;Temp;Humidity;BMP_temperature;BMP_pressure;BME280_temperature;BME280_humidity;BME280_pressure;Samples;Min_cycle;Max_cycle;Signal;HPM_P1;HPM_P2
2022/02/21 00:02:24;;;;;;;6.07;1.48;;;8.50;99.90;;;;;;5038305;28;20101;-53
2022/02/21 00:04:50;;;;;;;8.25;1.63;;;8.40;99.90;;;;;;5042395;28;20442;-62
2022/02/21 00:07:15;;;;;;;4.68;1.60;;;8.20;99.90;;;;;;5045190;28;20083;-62
2022/02/21 00:09:41;;;;;;;7.93;1.50;;;8.10;99.90;;;;;;5050416;28;20104;-62
2022/02/21 00:12:07;;;;;;;6.97;1.67;;;8.00;99.90;;;;;;5050347;28;20033;-63
2022/02/21 00:14:33;;;;;;;4.35;1.48;;;7.90;99.90;;;;;;5050402;28;20049;-63
2022/02/21 00:16:58;;;;;;;8.10;1.42;;;7.90;99.90;;;;;;5051218;28;20076;-63
2022/02/21 00:19:24;;;;;;;4.45;1.40;;;7.70;99.90;;;;;;5048450;28;20424;-63
2022/02/21 00:21:50;;;;;;;6.93;1.40;;;7.60;99.90;;;;;;5051149;28;20171;-64
2022/02/21 00:24:16;;;;;;;7.60;1.40;;;7.60;99.90;;;;;;5045051;28;20112;-64
2022/02/21 00:26:41;;;;;;;4.25;1.17;;;7.50;99.90;;;;;;5046986;28;20135;-63
2022/02/21 00:29:08;;;;;;;9.32;1.92;;;7.50;99.90;;;;;;5048443;28;20111;-62
2022/02/21 00:31:34;;;;;;;12.98;1.50;;;7.40;99.90;;;;;;5050875;28;20048;-63
2022/02/21 00:34:00;;;;;;;7.78;1.38;;;7.30;99.90;;;;;;5048228;28;20127;-63
2022/02/21 00:36:26;;;;;;;5.88;1.00;;;7.20;99.90;;;;;;5050800;28;20120;-62
2022/02/21 00:38:51;;;;;;;9.48;1.65;;;7.20;99.90;;;;;;5047275;28;20120;-65
2022/02/21 00:41:17;;;;;;;10.40;1.60;;;7.10;99.90;;;;;;5044766;28;20086;-62
2022/02/21 00:43:43;;;;;;;4.95;1.70;;;7.00;99.90;;;;;;5046983;28;20538;-63
2022/02/21 00:46:08;;;;;;;6.20;0.90;;;7.00;99.90;;;;;;5051083;28;20133;-63
2022/02/21 00:48:34;;;;;;;5.40;1.23;;;6.90;99.90;;;;;;5032126;28;20086;-58
2022/02/21 00:51:00;;;;;;;2.92;0.70;;;6.90;99.90;;;;;;5051212;28;20052;-59
2022/02/21 00:53:25;;;;;;;3.05;1.13;;;6.80;99.90;;;;;;5043472;28;20084;-57
2022/02/21 00:55:51;;;;;;;4.95;0.73;;;6.70;99.90;;;;;;5041577;28;20036;-56
2022/02/21 00:58:17;;;;;;;2.47;0.70;;;6.70;99.90;;;;;;5048366;28;20021;-59
2022/02/21 01:00:43;;;;;;;4.93;0.93;;;6.70;99.90;;;;;;5041738;28;20037;-57
2022/02/21 01:03:08;;;;;;;2.38;0.90;;;6.60;99.90;;;;;;5045598;28;20502;-58
2022/02/21 01:05:34;;;;;;;2.92;0.85;;;6.60;99.90;;;;;;5045300;28;20032;-59
2022/02/21 01:08:01;;;;;;;1.77;1.15;;;6.60;99.90;;;;;;5046486;28;20112;-58
2022/02/21 01:10:27;;;;;;;3.63;0.70;;;6.60;99.90;;;;;;5045231;28;20146;-60
2022/02/21 01:12:53;;;;;;;5.25;0.90;;;6.60;99.90;;;;;;5050013;28;20025;-58
2022/02/21 01:15:18;;;;;;;2.75;0.47;;;6.60;99.90;;;;;;5032043;28;20032;-58
2022/02/21 01:17:45;;;;;;;2.00;0.38;;;6.60;99.90;;;;;;5039577;28;20494;-60
2022/02/21 01:20:12;;;;;;;3.45;0.82;;;6.50;99.90;;;;;;5043876;28;20136;-60
2022/02/21 01:22:38;;;;;;;3.40;0.68;;;6.60;99.90;;;;;;5040718;28;20017;-60
2022/02/21 01:25:06;;;;;;;3.88;0.82;;;6.60;99.90;;;;;;5049060;28;20498;-61
2022/02/21 01:27:32;;;;;;;4.00;0.60;;;6.60;99.90;;;;;;5048990;28;20459;-61
2022/02/21 01:29:57;;;;;;;2.17;0.57;;;6.50;99.90;;;;;;5041529;28;20035;-60
2022/02/21 01:32:23;;;;;;;2.47;0.80;;;6.60;99.90;;;;;;5049536;28;20551;-60
2022/02/21 01:34:49;;;;;;;0.95;0.43;;;6.60;99.90;;;;;;5046302;28;20037;-59
2022/02/21 01:37:14;;;;;;;2.75;0.88;;;6.50;99.90;;;;;;5043440;28;20017;-60
2022/02/21 01:39:40;;;;;;;3.65;0.80;;;6.50;99.90;;;;;;5040639;28;20025;-62
2022/02/21 01:42:06;;;;;;;4.10;1.13;;;6.50;99.90;;;;;;5050385;28;20028;-62
2022/02/21 01:44:43;;;;;;;1.08;0.40;;;6.50;99.90;;;;;;5039736;28;20033;-62
2022/02/21 01:47:12;;;;;;;3.15;0.68;;;6.40;99.90;;;;;;5029965;28;20376;-61
2022/02/21 01:49:38;;;;;;;2.00;0.80;;;6.30;99.90;;;;;;5039521;28;20562;-61
2022/02/21 01:52:05;;;;;;;5.43;0.70;;;6.20;99.90;;;;;;5050061;28;20112;-59
2022/02/21 01:54:31;;;;;;;3.70;0.70;;;6.10;99.90;;;;;;5040265;28;20040;-59
2022/02/21 01:56:58;;;;;;;5.15;0.93;;;6.00;99.90;;;;;;5049266;28;20024;-61
2022/02/21 01:59:26;;;;;;;5.90;1.20;;;5.90;99.90;;;;;;5040932;28;20332;-61
2022/02/21 02:01:53;;;;;;;3.50;0.95;;;5.80;99.90;;;;;;5040557;28;20029;-59
2022/02/21 02:04:20;;;;;;;3.70;1.13;;;5.80;99.90;;;;;;5027687;28;20044;-57
2022/02/21 02:06:48;;;;;;;9.13;1.23;;;5.70;99.90;;;;;;5046276;28;20102;-57
2022/02/21 02:09:13;;;;;;;3.47;0.82;;;5.60;99.90;;;;;;5049076;28;20028;-55
2022/02/21 02:11:41;;;;;;;4.45;0.95;;;5.50;99.90;;;;;;5049126;28;20024;-57
2022/02/21 02:14:07;;;;;;;5.45;1.00;;;5.40;99.90;;;;;;5026968;28;20083;-57
2022/02/21 02:16:32;;;;;;;8.20;1.30;;;5.40;99.90;;;;;;5044652;28;20456;-55
2022/02/21 02:18:58;;;;;;;8.90;1.55;;;5.30;99.90;;;;;;5048740;28;20025;-56
2022/02/21 02:21:26;;;;;;;7.38;1.80;;;5.30;99.90;;;;;;5049499;28;20576;-59
2022/02/21 02:23:53;;;;;;;14.43;1.20;;;5.30;99.90;;;;;;5047589;28;20060;-52
2022/02/21 02:26:20;;;;;;;16.08;2.00;;;5.30;99.90;;;;;;5048825;28;20106;-55
2022/02/21 02:28:49;;;;;;;18.38;2.65;;;5.30;99.90;;;;;;5041218;28;20048;-54
2022/02/21 02:31:14;;;;;;;10.85;2.22;;;5.40;99.90;;;;;;5029661;28;20025;-55
2022/02/21 02:33:41;;;;;;;20.67;3.05;;;5.40;99.90;;;;;;5035855;28;20033;-55
2022/02/21 02:36:08;;;;;;;16.40;2.75;;;5.40;99.90;;;;;;5048797;28;20430;-55
2022/02/21 02:38:38;;;;;;;19.17;2.38;;;5.50;99.90;;;;;;5026145;28;20196;-52
2022/02/21 02:41:08;;;;;;;18.20;2.85;;;5.50;99.90;;;;;;5041674;28;20394;-53
2022/02/21 02:43:39;;;;;;;13.98;2.60;;;5.60;99.90;;;;;;5039428;28;20025;-52
2022/02/21 02:46:05;;;;;;;14.48;3.03;;;5.60;99.90;;;;;;5041224;28;20061;-54
2022/02/21 02:48:32;;;;;;;23.50;2.85;;;5.60;99.90;;;;;;5040755;28;20060;-62
2022/02/21 02:50:58;;;;;;;27.77;3.78;;;5.50;99.90;;;;;;5048678;28;20094;-52
2022/02/21 02:53:24;;;;;;;28.20;4.50;;;5.50;99.90;;;;;;5041972;28;20061;-52
2022/02/21 02:55:49;;;;;;;30.85;4.53;;;5.50;99.90;;;;;;5046660;28;20095;-53
2022/02/21 02:58:15;;;;;;;18.58;2.92;;;5.50;99.90;;;;;;5048508;28;20436;-51
2022/02/21 03:00:41;;;;;;;23.50;3.85;;;5.50;99.90;;;;;;5029662;28;20094;-54
2022/02/21 03:03:06;;;;;;;22.92;3.83;;;5.50;99.90;;;;;;5044208;28;20109;-51
2022/02/21 03:05:32;;;;;;;39.83;5.57;;;5.50;99.90;;;;;;5036219;28;20033;-54
2022/02/21 03:07:57;;;;;;;37.47;6.50;;;5.60;99.90;;;;;;5045222;28;20503;-58
2022/02/21 03:10:23;;;;;;;29.30;5.07;;;5.60;99.90;;;;;;5043706;28;20094;-58
2022/02/21 03:12:49;;;;;;;25.73;4.32;;;5.60;99.90;;;;;;5047534;28;20032;-52
2022/02/21 03:15:14;;;;;;;33.85;5.32;;;5.60;99.90;;;;;;5048273;28;20109;-53
2022/02/21 03:17:40;;;;;;;36.90;5.93;;;5.60;99.90;;;;;;5047535;28;20139;-59
2022/02/21 03:20:06;;;;;;;44.53;5.40;;;5.70;99.90;;;;;;5031036;28;20060;-56
2022/02/21 03:22:32;;;;;;;43.97;5.22;;;5.70;99.90;;;;;;5047392;28;20052;-54
2022/02/21 03:24:58;;;;;;;35.85;4.30;;;5.60;99.90;;;;;;5039352;28;20052;-58
2022/02/21 03:27:24;;;;;;;32.33;3.97;;;5.30;99.90;;;;;;5047772;28;20033;-60
2022/02/21 03:29:49;;;;;;;41.10;5.70;;;5.10;99.90;;;;;;5040221;28;20226;-60
2022/02/21 03:32:15;;;;;;;40.10;5.00;;;5.00;99.90;;;;;;5048272;28;20037;-55
2022/02/21 03:34:41;;;;;;;36.88;5.63;;;5.00;99.90;;;;;;5047617;28;20115;-54
2022/02/21 03:37:07;;;;;;;33.05;4.45;;;5.00;99.90;;;;;;5048189;28;20471;-54
2022/02/21 03:39:32;;;;;;;40.35;6.05;;;5.10;99.90;;;;;;5039163;28;20021;-62
2022/02/21 03:41:58;;;;;;;35.00;4.45;;;5.10;99.90;;;;;;5040346;28;20483;-58
2022/02/21 03:44:23;;;;;;;32.88;4.68;;;5.10;99.90;;;;;;5039497;28;20040;-57
2022/02/21 03:46:49;;;;;;;29.08;5.00;;;5.10;99.90;;;;;;5047768;28;20070;-58
2022/02/21 03:49:15;;;;;;;37.03;6.43;;;5.20;99.90;;;;;;5038371;28;20025;-56
2022/02/21 03:51:41;;;;;;;43.17;4.82;;;5.20;99.90;;;;;;5039730;28;20132;-57
2022/02/21 03:54:07;;;;;;;36.63;4.78;;;5.20;99.90;;;;;;5041011;28;20101;-60
2022/02/21 03:56:34;;;;;;;38.72;5.65;;;5.10;99.90;;;;;;5051263;28;20029;-58
2022/02/21 03:59:00;;;;;;;38.55;5.40;;;5.10;99.90;;;;;;5042187;28;20061;-63
2022/02/21 04:01:26;;;;;;;36.75;5.65;;;5.10;99.90;;;;;;5052014;28;20513;-63
2022/02/21 04:03:51;;;;;;;33.80;5.30;;;5.00;99.90;;;;;;5048505;28;20036;-63
2022/02/21 04:06:17;;;;;;;36.17;5.85;;;5.00;99.90;;;;;;5045374;28;20482;-56
2022/02/21 04:08:43;;;;;;;43.92;5.00;;;4.90;99.90;;;;;;5049906;28;20479;-60
2022/02/21 04:11:08;;;;;;;46.30;6.45;;;4.90;99.90;;;;;;5043143;28;20036;-61
2022/02/21 04:13:34;;;;;;;40.45;5.10;;;4.90;99.90;;;;;;5050298;28;20037;-61
2022/02/21 04:15:59;;;;;;;40.47;5.78;;;5.00;99.90;;;;;;5042887;28;20305;-52
2022/02/21 04:18:25;;;;;;;42.63;6.68;;;5.00;99.90;;;;;;5051035;28;20029;-55
2022/02/21 04:20:51;;;;;;;52.88;6.22;;;5.00;99.90;;;;;;5042180;28;20429;-55
2022/02/21 04:23:17;;;;;;;36.78;6.05;;;5.00;99.90;;;;;;5050754;28;20105;-58
2022/02/21 04:25:44;;;;;;;31.70;5.85;;;5.00;99.90;;;;;;5041660;28;20044;-61
2022/02/21 04:28:10;;;;;;;58.60;8.45;;;5.00;99.90;;;;;;5042452;28;20031;-64
2022/02/21 04:30:37;;;;;;;47.38;6.45;;;5.00;99.90;;;;;;5052281;28;20406;-63
2022/02/21 04:33:03;;;;;;;48.33;7.05;;;5.10;99.90;;;;;;5050869;28;20021;-62
2022/02/21 04:35:29;;;;;;;18.52;3.45;;;5.00;99.90;;;;;;5042208;28;20378;-60
2022/02/21 04:37:54;;;;;;;22.17;3.33;;;4.60;99.90;;;;;;5041539;28;20052;-57
2022/02/21 04:40:24;;;;;;;14.55;2.65;;;4.30;99.90;;;;;;5050614;28;20029;-55
2022/02/21 04:42:50;;;;;;;33.03;4.97;;;4.00;99.90;;;;;;5042683;28;20513;-56
2022/02/21 04:45:16;;;;;;;36.30;4.32;;;3.80;99.90;;;;;;5049873;28;20032;-56
2022/02/21 04:47:42;;;;;;;27.40;4.57;;;3.70;99.90;;;;;;5042502;28;20028;-55
2022/02/21 04:50:09;;;;;;;24.13;3.67;;;3.60;99.90;;;;;;5041262;28;20033;-55
2022/02/21 04:52:35;;;;;;;33.45;5.35;;;3.60;99.90;;;;;;5032799;28;20135;-56
2022/02/21 04:55:02;;;;;;;25.70;3.75;;;3.60;99.90;;;;;;5046354;28;20069;-56
2022/02/21 04:57:28;;;;;;;28.60;4.10;;;3.60;99.90;;;;;;5046648;28;20018;-65
2022/02/21 04:59:54;;;;;;;25.02;3.85;;;3.70;99.90;;;;;;5050130;28;20372;-57
2022/02/21 05:02:19;;;;;;;38.15;5.43;;;3.70;99.90;;;;;;5032450;28;20041;-62
2022/02/21 05:04:45;;;;;;;32.53;4.93;;;3.70;99.90;;;;;;5049302;28;20065;-61
2022/02/21 05:07:11;;;;;;;40.10;5.15;;;3.80;99.90;;;;;;5049733;28;20083;-62
2022/02/21 05:09:37;;;;;;;37.20;5.00;;;3.70;99.90;;;;;;5049660;28;20040;-62
2022/02/21 05:12:03;;;;;;;37.58;6.32;;;3.80;99.90;;;;;;5038509;28;20107;-62
2022/02/21 05:14:29;;;;;;;46.30;6.65;;;3.70;99.90;;;;;;5048562;28;20447;-60
2022/02/21 05:16:54;;;;;;;41.45;5.68;;;3.80;99.90;;;;;;5042225;28;20541;-61
2022/02/21 05:19:20;;;;;;;26.38;4.40;;;3.80;99.90;;;;;;5048760;28;20037;-61
2022/02/21 05:21:46;;;;;;;39.20;5.60;;;3.90;99.90;;;;;;5041767;28;20049;-52
2022/02/21 05:24:11;;;;;;;45.75;5.53;;;3.90;99.90;;;;;;5049198;28;20061;-53
2022/02/21 05:26:37;;;;;;;31.70;4.90;;;4.00;99.90;;;;;;5041902;28;20041;-57
2022/02/21 05:29:03;;;;;;;37.55;5.65;;;4.10;99.90;;;;;;5046676;28;20037;-54
2022/02/21 05:31:29;;;;;;;30.10;5.32;;;4.10;99.90;;;;;;5038305;28;20032;-64
2022/02/21 05:33:55;;;;;;;34.40;4.95;;;4.20;99.90;;;;;;5046108;28;20332;-59
2022/02/21 05:36:21;;;;;;;26.70;4.53;;;4.20;99.90;;;;;;5044217;28;20086;-60
2022/02/21 05:38:46;;;;;;;39.08;5.38;;;4.20;99.90;;;;;;5047904;28;20585;-60
2022/02/21 05:41:12;;;;;;;48.33;5.60;;;4.20;99.90;;;;;;5037576;28;20026;-60
2022/02/21 05:43:38;;;;;;;30.73;4.45;;;4.20;99.90;;;;;;5045757;28;20036;-61
2022/02/21 05:46:04;;;;;;;37.55;5.85;;;4.20;99.90;;;;;;5041571;28;20078;-61
2022/02/21 05:48:30;;;;;;;36.22;5.40;;;4.10;99.90;;;;;;5049911;28;20037;-61
2022/02/21 05:50:56;;;;;;;19.70;4.05;;;4.10;99.90;;;;;;5044562;28;20033;-61
2022/02/21 05:53:21;;;;;;;26.98;4.38;;;4.10;99.90;;;;;;5039565;28;20075;-60
2022/02/21 05:55:47;;;;;;;30.58;4.18;;;4.10;99.90;;;;;;5049140;28;20017;-61
2022/02/21 05:58:13;;;;;;;36.45;5.65;;;4.10;99.90;;;;;;5040791;28;20053;-61
2022/02/21 06:00:38;;;;;;;31.92;4.72;;;4.10;99.90;;;;;;5031595;28;20056;-60
2022/02/21 06:03:04;;;;;;;36.15;5.28;;;4.10;99.90;;;;;;5040948;28;20029;-59
2022/02/21 06:05:30;;;;;;;24.17;4.13;;;4.00;99.90;;;;;;5049257;28;20029;-60
2022/02/21 06:07:55;;;;;;;35.65;5.88;;;3.80;99.90;;;;;;5040562;28;20488;-58
2022/02/21 06:10:21;;;;;;;41.65;4.60;;;3.70;99.90;;;;;;5042890;28;20041;-59
2022/02/21 06:12:48;;;;;;;34.97;4.93;;;3.60;99.90;;;;;;5037611;28;20025;-60
2022/02/21 06:15:14;;;;;;;25.77;3.05;;;3.60;99.90;;;;;;5047687;28;20143;-60
2022/02/21 06:17:39;;;;;;;30.65;3.55;;;3.50;99.90;;;;;;5047615;28;20120;-60
2022/02/21 06:20:06;;;;;;;19.25;3.25;;;3.40;99.90;;;;;;5041918;28;20040;-60
2022/02/21 06:22:31;;;;;;;24.20;3.92;;;3.40;99.90;;;;;;5048926;28;20029;-60
2022/02/21 06:24:57;;;;;;;30.95;5.05;;;3.40;99.90;;;;;;5040917;28;20034;-60
2022/02/21 06:27:22;;;;;;;25.67;4.55;;;3.40;99.90;;;;;;5047873;28;20033;-61
2022/02/21 06:29:48;;;;;;;27.92;3.70;;;3.40;99.90;;;;;;5040965;28;20090;-60
2022/02/21 06:32:14;;;;;;;30.98;4.32;;;3.40;99.90;;;;;;5049712;28;20033;-60
2022/02/21 06:34:40;;;;;;;27.40;4.85;;;3.50;99.90;;;;;;5029344;28;20108;-60
2022/02/21 06:37:05;;;;;;;31.67;4.00;;;3.50;99.90;;;;;;5029444;28;20443;-61
2022/02/21 06:39:31;;;;;;;31.38;4.35;;;3.60;99.90;;;;;;5040848;28;20368;-60
2022/02/21 06:41:57;;;;;;;36.47;6.03;;;3.60;99.90;;;;;;5048946;28;20071;-60
2022/02/21 06:44:23;;;;;;;28.20;5.35;;;3.70;99.90;;;;;;5039929;28;20033;-61
2022/02/21 06:46:48;;;;;;;27.50;3.97;;;3.70;99.90;;;;;;5037308;28;20037;-61
2022/02/21 06:49:14;;;;;;;36.85;5.13;;;3.80;99.90;;;;;;5047441;28;20036;-61
2022/02/21 06:51:40;;;;;;;28.30;4.57;;;3.80;99.90;;;;;;5037637;28;20407;-61
2022/02/21 06:54:07;;;;;;;36.10;4.38;;;3.80;99.90;;;;;;5048595;28;20391;-61
2022/02/21 06:56:34;;;;;;;27.33;5.13;;;3.80;99.90;;;;;;5040038;28;20044;-62
2022/02/21 06:59:00;;;;;;;30.77;5.50;;;3.80;99.90;;;;;;5048280;28;20134;-65
2022/02/21 07:01:26;;;;;;;28.00;4.32;;;3.70;99.90;;;;;;5042090;28;20030;-64
2022/02/21 07:03:54;;;;;;;27.83;4.32;;;3.80;99.90;;;;;;5044456;28;20379;-63
2022/02/21 07:06:19;;;;;;;29.48;4.43;;;3.80;99.90;;;;;;5043550;28;20029;-62
2022/02/21 07:08:45;;;;;;;40.88;4.65;;;3.80;99.90;;;;;;5048150;28;20041;-52
2022/02/21 07:11:11;;;;;;;34.47;4.82;;;4.30;99.90;;;;;;5049295;28;20087;-52
2022/02/21 07:13:37;;;;;;;35.83;5.80;;;4.20;99.90;;;;;;5047701;28;20052;-51
2022/02/21 07:16:03;;;;;;;26.05;3.92;;;4.10;99.90;;;;;;5041160;28;20049;-50
2022/02/21 07:18:29;;;;;;;33.55;4.75;;;4.10;99.90;;;;;;5027166;28;20486;-62
2022/02/21 07:20:54;;;;;;;35.08;5.55;;;3.90;99.90;;;;;;5043712;28;20048;-62
2022/02/21 07:23:20;;;;;;;35.92;5.60;;;3.90;99.90;;;;;;5023545;28;20087;-48
2022/02/21 07:25:46;;;;;;;21.67;3.83;;;3.80;99.90;;;;;;5043075;28;20125;-49
2022/02/21 07:28:12;;;;;;;28.65;5.22;;;3.70;99.90;;;;;;5045972;28;20107;-56
2022/02/21 07:30:38;;;;;;;21.55;4.40;;;3.60;99.90;;;;;;5041900;28;20068;-55
2022/02/21 07:33:03;;;;;;;27.67;4.95;;;3.40;99.90;;;;;;5052098;28;20037;-55
2022/02/21 07:35:29;;;;;;;52.75;5.22;;;3.40;99.90;;;;;;5051569;28;20044;-50
2022/02/21 07:37:55;;;;;;;39.85;5.10;;;3.40;99.90;;;;;;5052364;28;20029;-56
2022/02/21 07:40:21;;;;;;;26.38;4.28;;;3.40;99.90;;;;;;5051654;28;20052;-52
2022/02/21 07:42:49;;;;;;;35.53;5.30;;;3.50;99.90;;;;;;5052409;28;20112;-52
2022/02/21 07:45:17;;;;;;;39.70;3.90;;;3.70;99.90;;;;;;5042949;28;20044;-53
2022/02/21 07:47:48;;;;;;;29.50;3.75;;;3.80;99.90;;;;;;5052468;28;20029;-52
2022/02/21 07:50:15;;;;;;;23.05;4.90;;;3.80;99.90;;;;;;5042382;28;20025;-51
2022/02/21 07:52:40;;;;;;;32.00;4.32;;;3.90;99.90;;;;;;5042580;28;20048;-56
2022/02/21 07:55:07;;;;;;;24.67;4.63;;;4.00;99.90;;;;;;5051709;28;20036;-55
2022/02/21 07:57:32;;;;;;;23.58;4.07;;;4.00;99.90;;;;;;5030720;28;20390;-57
2022/02/21 07:59:58;;;;;;;24.70;3.75;;;3.90;99.90;;;;;;5045491;28;20044;-55
2022/02/21 08:02:25;;;;;;;36.42;4.93;;;3.90;99.90;;;;;;5030478;28;20051;-55
2022/02/21 08:04:50;;;;;;;28.35;4.93;;;3.90;99.90;;;;;;5051229;28;20037;-55
2022/02/21 08:07:16;;;;;;;29.00;4.13;;;3.80;99.90;;;;;;5050984;28;20028;-58
2022/02/21 08:09:42;;;;;;;28.55;4.32;;;3.70;99.90;;;;;;5042620;28;20045;-58
2022/02/21 08:12:08;;;;;;;38.30;5.70;;;3.40;99.90;;;;;;5050121;28;20101;-65
2022/02/21 08:14:37;;;;;;;27.65;4.43;;;3.30;99.90;;;;;;5050941;28;20036;-57
2022/02/21 08:17:03;;;;;;;32.47;4.88;;;3.30;99.90;;;;;;5049081;28;20067;-56
2022/02/21 08:19:28;;;;;;;36.03;5.63;;;3.20;99.90;;;;;;5051479;28;20542;-56
2022/02/21 08:21:54;;;;;;;30.50;4.65;;;3.20;99.90;;;;;;5049892;28;20029;-56
2022/02/21 08:24:21;;;;;;;18.13;4.00;;;3.10;99.90;;;;;;5051312;28;20052;-58
2022/02/21 08:26:46;;;;;;;23.30;3.80;;;3.00;99.90;;;;;;5041646;28;20033;-58
2022/02/21 08:29:12;;;;;;;26.45;4.22;;;2.70;99.90;;;;;;5050437;28;20033;-60
2022/02/21 08:31:38;;;;;;;30.30;4.32;;;2.60;99.90;;;;;;5041879;28;20030;-60
2022/02/21 08:34:03;;;;;;;24.20;3.80;;;2.60;99.90;;;;;;5050480;28;20021;-59
2022/02/21 08:36:29;;;;;;;25.85;3.92;;;2.50;99.90;;;;;;5042609;28;20044;-60
2022/02/21 08:38:55;;;;;;;28.48;4.15;;;2.40;99.90;;;;;;5051209;28;20029;-60
2022/02/21 08:41:21;;;;;;;34.78;4.22;;;2.20;99.90;;;;;;5024645;28;20261;-62
2022/02/21 08:43:47;;;;;;;24.90;5.07;;;2.10;99.90;;;;;;5048616;28;20040;-62
2022/02/21 08:46:13;;;;;;;28.42;4.10;;;2.10;99.90;;;;;;5049100;28;20033;-59
2022/02/21 08:48:39;;;;;;;26.08;5.05;;;2.10;99.90;;;;;;5041744;28;20045;-57
2022/02/21 08:51:05;;;;;;;28.52;4.68;;;2.20;99.90;;;;;;5042096;28;20036;-59
2022/02/21 08:53:31;;;;;;;30.73;4.88;;;2.30;99.90;;;;;;5038327;28;20509;-59
2022/02/21 08:55:56;;;;;;;37.72;4.40;;;2.40;99.90;;;;;;5035179;28;20033;-59
2022/02/21 08:58:22;;;;;;;22.60;4.90;;;2.40;99.90;;;;;;5043723;28;20033;-59
2022/02/21 09:00:48;;;;;;;32.88;5.38;;;2.50;99.90;;;;;;5039708;28;20278;-58
2022/02/21 09:03:13;;;;;;;29.80;4.13;;;2.60;99.90;;;;;;5050831;28;20021;-58
2022/02/21 09:05:39;;;;;;;25.23;4.72;;;2.80;99.90;;;;;;5048568;28;20051;-56
2022/02/21 09:08:05;;;;;;;33.10;5.57;;;2.90;99.90;;;;;;5049850;28;20423;-59
2022/02/21 09:10:32;;;;;;;32.20;4.63;;;3.00;99.90;;;;;;5049389;28;20035;-57
2022/02/21 09:12:59;;;;;;;31.70;4.57;;;3.10;99.90;;;;;;5042656;28;20060;-56
2022/02/21 09:15:24;;;;;;;23.00;4.18;;;3.20;99.90;;;;;;5049248;28;20546;-57
2022/02/21 09:17:51;;;;;;;49.65;5.40;;;3.30;99.90;;;;;;5038913;28;20139;-56
2022/02/21 09:20:16;;;;;;;33.80;4.30;;;3.40;99.90;;;;;;5031145;28;20029;-57
2022/02/21 09:22:43;;;;;;;30.67;4.35;;;3.50;99.90;;;;;;5041382;28;20036;-52
2022/02/21 09:25:09;;;;;;;19.77;3.25;;;3.50;99.90;;;;;;5048314;28;20171;-52
2022/02/21 09:27:35;;;;;;;24.48;4.47;;;3.60;99.90;;;;;;5048755;28;20139;-54
2022/02/21 09:30:05;;;;;;;27.20;5.75;;;3.70;99.90;;;;;;5049869;28;20548;-57
2022/02/21 09:32:31;;;;;;;15.77;3.47;;;3.70;99.90;;;;;;5049159;28;20220;-56
2022/02/21 09:34:57;;;;;;;25.30;4.05;;;3.80;99.90;;;;;;5041247;28;20068;-53
2022/02/21 09:37:25;;;;;;;41.83;5.22;;;3.80;99.90;;;;;;5048887;28;20025;-52
2022/02/21 09:39:51;;;;;;;30.88;4.30;;;3.80;99.90;;;;;;5041311;28;20542;-53
2022/02/21 09:42:17;;;;;;;19.60;4.15;;;3.80;99.90;;;;;;5048581;28;20025;-55
2022/02/21 09:44:43;;;;;;;25.20;3.95;;;3.80;99.90;;;;;;5040972;28;20025;-56
2022/02/21 09:47:13;;;;;;;41.13;4.75;;;3.90;99.90;;;;;;5048262;28;20142;-58
2022/02/21 09:49:39;;;;;;;23.63;4.05;;;3.90;99.90;;;;;;5040661;28;20067;-57
2022/02/21 09:52:05;;;;;;;29.17;4.25;;;3.90;99.90;;;;;;5048004;28;20063;-55
2022/02/21 09:54:31;;;;;;;29.10;4.63;;;4.00;99.90;;;;;;5044853;28;20072;-59
2022/02/21 09:56:56;;;;;;;29.60;4.40;;;4.10;99.90;;;;;;5047549;28;20116;-54
2022/02/21 09:59:22;;;;;;;34.05;4.88;;;4.20;99.90;;;;;;5048008;28;20021;-57
2022/02/21 10:01:49;;;;;;;28.23;4.78;;;4.20;99.90;;;;;;5049178;28;20029;-52
2022/02/21 10:04:23;;;;;;;29.73;4.40;;;4.30;99.90;;;;;;5043970;28;20040;-51
2022/02/21 10:06:54;;;;;;;31.85;5.20;;;4.30;99.90;;;;;;5047133;28;20040;-54
2022/02/21 10:09:22;;;;;;;30.02;4.85;;;4.40;99.90;;;;;;5047831;28;20378;-55
2022/02/21 10:11:49;;;;;;;36.60;5.30;;;4.40;99.90;;;;;;5048882;28;20921;-52
2022/02/21 10:14:24;;;;;;;34.45;4.20;;;4.50;99.90;;;;;;5042968;28;20044;-54
2022/02/21 10:16:51;;;;;;;29.70;4.80;;;4.60;99.90;;;;;;5046676;28;20024;-54
2022/02/21 10:19:38;;;;;;;24.35;4.55;;;4.70;99.90;;;;;;5048734;28;20021;-55
2022/02/21 10:22:06;;;;;;;29.77;4.45;;;4.80;99.90;;;;;;5048809;28;20116;-55
2022/02/21 10:24:42;;;;;;;24.05;4.70;;;4.80;99.90;;;;;;5048985;28;20141;-55
2022/02/21 10:27:23;;;;;;;26.33;4.95;;;4.80;99.90;;;;;;5043482;28;20029;-54
2022/02/21 10:30:00;;;;;;;38.10;4.38;;;4.90;99.90;;;;;;5037781;28;20060;-56
2022/02/21 10:32:33;;;;;;;21.90;4.13;;;5.00;99.90;;;;;;5041644;28;20108;-55
2022/02/21 10:35:20;;;;;;;25.52;4.68;;;5.10;99.90;;;;;;5045906;28;20040;-57
2022/02/21 10:37:54;;;;;;;34.78;5.10;;;5.10;99.90;;;;;;5039909;28;20040;-56
2022/02/21 10:40:35;;;;;;;37.38;4.75;;;5.10;99.90;;;;;;5036347;28;20028;-54
2022/02/21 10:43:01;;;;;;;22.05;5.15;;;5.10;99.90;;;;;;5044988;28;20022;-54
2022/02/21 10:45:29;;;;;;;29.88;3.65;;;5.10;99.90;;;;;;5043805;28;20029;-56
2022/02/21 10:48:04;;;;;;;20.67;4.50;;;5.10;99.90;;;;;;5045645;28;20124;-60
2022/02/21 10:50:51;;;;;;;39.17;5.28;;;5.00;99.90;;;;;;5040735;28;20029;-58
2022/02/21 10:53:18;;;;;;;23.27;4.57;;;5.00;99.90;;;;;;5024066;28;20395;-56
2022/02/21 10:55:50;;;;;;;27.50;4.03;;;5.00;99.90;;;;;;5047679;28;20171;-57
2022/02/21 10:58:18;;;;;;;20.90;4.30;;;5.00;99.90;;;;;;5048272;28;20174;-56
2022/02/21 11:00:44;;;;;;;25.77;4.55;;;5.00;99.90;;;;;;5046557;28;20466;-57
2022/02/21 11:03:11;;;;;;;29.70;4.47;;;5.00;99.90;;;;;;5041925;28;20025;-54
2022/02/21 11:05:39;;;;;;;29.50;4.72;;;5.00;99.90;;;;;;5051274;28;20494;-60
2022/02/21 11:08:06;;;;;;;27.10;4.57;;;4.90;99.90;;;;;;5045317;28;20025;-56
2022/02/21 11:10:34;;;;;;;23.85;4.50;;;4.90;99.90;;;;;;5051734;28;20040;-58
2022/02/21 11:13:01;;;;;;;22.38;3.88;;;4.90;99.90;;;;;;5052442;28;20430;-57
2022/02/21 11:15:28;;;;;;;20.23;4.43;;;4.90;99.90;;;;;;5044314;28;20060;-57
2022/02/21 11:17:54;;;;;;;22.55;4.13;;;4.90;99.90;;;;;;5051256;28;20042;-57
2022/02/21 11:20:20;;;;;;;15.82;3.92;;;4.90;99.90;;;;;;5049868;28;20021;-58
2022/02/21 11:22:46;;;;;;;12.35;3.30;;;4.80;99.90;;;;;;5040083;28;20400;-59
2022/02/21 11:25:56;;;;;;;16.10;3.10;;;4.80;99.90;;;;;;5049721;28;20087;-58
2022/02/21 11:28:30;;;;;;;23.75;4.40;;;4.70;99.90;;;;;;5046985;28;20033;-62
2022/02/21 11:31:02;;;;;;;28.23;4.82;;;4.70;99.90;;;;;;5049357;28;20055;-57
2022/02/21 11:33:28;;;;;;;17.90;4.00;;;4.70;99.90;;;;;;5047728;28;20063;-54
2022/02/21 11:36:04;;;;;;;26.83;3.40;;;4.70;99.90;;;;;;5046843;28;20291;-56
2022/02/21 11:38:30;;;;;;;33.05;4.20;;;4.70;99.90;;;;;;5049275;28;20379;-54
2022/02/21 11:41:06;;;;;;;21.85;3.40;;;4.70;99.90;;;;;;5046580;28;20025;-55
2022/02/21 11:43:43;;;;;;;20.33;3.42;;;4.60;99.90;;;;;;5047560;28;20032;-57
2022/02/21 11:46:28;;;;;;;31.30;4.85;;;4.60;99.90;;;;;;5040097;28;20025;-55
2022/02/21 11:49:00;;;;;;;18.95;4.00;;;4.60;99.90;;;;;;5043139;28;20041;-59
2022/02/21 11:51:37;;;;;;;28.70;5.05;;;4.70;99.90;;;;;;5048664;28;20175;-59
2022/02/21 11:54:09;;;;;;;20.35;4.00;;;4.70;99.90;;;;;;5048714;28;20053;-56
2022/02/21 11:56:55;;;;;;;23.52;4.40;;;4.70;99.90;;;;;;5050716;28;20380;-58
2022/02/21 11:59:21;;;;;;;20.80;3.75;;;4.60;99.90;;;;;;5047870;28;20530;-59
2022/02/21 12:01:59;;;;;;;26.55;4.38;;;4.60;99.90;;;;;;5040959;28;20035;-59
2022/02/21 12:04:25;;;;;;;23.63;3.10;;;4.60;99.90;;;;;;5051026;28;20090;-59
2022/02/21 12:06:57;;;;;;;18.65;3.53;;;4.40;99.90;;;;;;5040247;28;20029;-60
2022/02/21 12:09:23;;;;;;;13.32;3.15;;;4.30;99.90;;;;;;5050923;28;20453;-61
2022/02/21 12:11:49;;;;;;;18.20;3.30;;;4.30;99.90;;;;;;5049383;28;20032;-55
2022/02/21 12:14:17;;;;;;;13.95;3.45;;;4.30;99.90;;;;;;5049195;28;20470;-55
2022/02/21 12:16:57;;;;;;;16.98;3.17;;;4.20;99.90;;;;;;5048170;28;20643;-55
2022/02/21 12:19:31;;;;;;;14.00;2.60;;;4.30;99.90;;;;;;5051969;28;20100;-58
2022/02/21 12:22:10;;;;;;;17.60;3.72;;;4.30;99.90;;;;;;5043006;28;20399;-56
2022/02/21 12:25:09;;;;;;;18.20;3.78;;;4.30;99.90;;;;;;5042146;28;20200;-59
2022/02/21 12:27:35;;;;;;;13.95;2.88;;;4.30;99.90;;;;;;5047577;28;20029;-54
2022/02/21 12:30:01;;;;;;;24.73;3.30;;;4.30;99.90;;;;;;5043337;28;20044;-54
2022/02/21 12:32:27;;;;;;;15.40;3.08;;;4.30;99.90;;;;;;5051631;28;20029;-54
2022/02/21 12:34:54;;;;;;;19.98;3.70;;;4.30;99.90;;;;;;5047458;28;20037;-54
2022/02/21 12:37:20;;;;;;;16.13;3.58;;;4.30;99.90;;;;;;5044843;28;20021;-58
2022/02/21 12:39:49;;;;;;;12.10;2.83;;;4.30;99.90;;;;;;5041849;28;20036;-55
2022/02/21 12:42:16;;;;;;;14.05;3.13;;;4.20;99.90;;;;;;5050801;28;20036;-52
2022/02/21 12:44:42;;;;;;;15.25;3.40;;;4.20;99.90;;;;;;5048810;28;20039;-57
2022/02/21 12:47:08;;;;;;;12.20;2.90;;;4.20;99.90;;;;;;5043248;28;20112;-58
2022/02/21 12:49:48;;;;;;;15.05;3.30;;;4.20;99.90;;;;;;5050197;28;20055;-54